sensor_id;sensor_type;location;lat;lon;timestamp;temperature;humidity
21559;DHT22;10940;48.890;8.240;2023-11-21T00:00:18;9.70;99.90
21559;DHT22;10940;48.890;8.240;2023-11-21T00:02:44;9.70;99.90
21559;DHT22;10940;48.890;8.240;2023-11-21T00:05:11;9.70;99.90
21559;DHT22;10940;48.890;8.240;2023-11-21T00:07:40;9.80;99.90
21559;DHT22;10940;48.890;8.240;2023-11-21T00:10:06;9.70;99.90
21559;DHT22;10940;48.890;8.240;2023-11-21T00:12:32;9.70;99.90
21559;DHT22;10940;48.890;8.240;2023-11-21T00:14:58;9.80;99.90
21559;DHT22;10940;48.890;8.240;2023-11-21T00:17:24;9.70;99.90
21559;DHT22;10940;48.890;8.240;2023-11-21T00:19:50;9.70;99.90
21559;DHT22;10940;48.890;8.240;2023-11-21T00:22:17;9.70;99.90
21559;DHT22;10940;48.890;8.240;2023-11-21T00:24:43;9.70;99.90
21559;DHT22;10940;48.890;8.240;2023-11-21T00:27:08;9.70;99.90
21559;DHT22;10940;48.890;8.240;2023-11-21T00:29:34;9.70;99.90
21559;DHT22;10940;48.890;8.240;2023-11-21T00:32:00;9.70;99.90
21559;DHT22;10940;48.890;8.240;2023-11-21T00:34:25;9.70;99.90
21559;DHT22;10940;48.890;8.240;2023-11-21T00:36:51;9.70;99.90
21559;DHT22;10940;48.890;8.240;2023-11-21T00:39:16;9.80;99.90
21559;DHT22;10940;48.890;8.240;2023-11-21T00:41:42;9.80;99.90
21559;DHT22;10940;48.890;8.240;2023-11-21T00:44:08;9.70;99.90
21559;DHT22;10940;48.890;8.240;2023-11-21T00:46:34;9.70;99.90
21559;DHT22;10940;48.890;8.240;2023-11-21T00:48:59;9.80;99.90
21559;DHT22;10940;48.890;8.240;2023-11-21T00:51:25;9.80;99.90
21559;DHT22;10940;48.890;8.240;2023-11-21T00:53:51;9.80;99.90
21559;DHT22;10940;48.890;8.240;2023-11-21T00:56:16;9.80;99.90
21559;DHT22;10940;48.890;8.240;2023-11-21T00:58:42;9.80;99.90
21559;DHT22;10940;48.890;8.240;2023-11-21T01:01:09;9.90;99.90
21559;DHT22;10940;48.890;8.240;2023-11-21T01:03:35;9.80;99.90
21559;DHT22;10940;48.890;8.240;2023-11-21T01:06:00;9.80;99.90
21559;DHT22;10940;48.890;8.240;2023-11-21T01:08:26;9.70;99.90
21559;DHT22;10940;48.890;8.240;2023-11-21T01:10:52;9.80;99.90
21559;DHT22;10940;48.890;8.240;2023-11-21T01:13:18;9.80;99.90
21559;DHT22;10940;48.890;8.240;2023-11-21T01:15:43;9.70;99.90
21559;DHT22;10940;48.890;8.240;2023-11-21T01:18:09;9.70;99.90
21559;DHT22;10940;48.890;8.240;2023-11-21T01:20:35;9.70;99.90
21559;DHT22;10940;48.890;8.240;2023-11-21T01:23:01;9.70;99.90
21559;DHT22;10940;48.890;8.240;2023-11-21T01:25:28;9.70;99.90
21559;DHT22;10940;48.890;8.240;2023-11-21T01:27:53;9.70;99.90
21559;DHT22;10940;48.890;8.240;2023-11-21T01:30:19;9.80;99.90
21559;DHT22;10940;48.890;8.240;2023-11-21T01:32:44;9.70;99.90
21559;DHT22;10940;48.890;8.240;2023-11-21T01:35:10;9.70;99.90
21559;DHT22;10940;48.890;8.240;2023-11-21T01:37:37;9.70;99.90
21559;DHT22;10940;48.890;8.240;2023-11-21T01:40:03;9.50;99.90
21559;DHT22;10940;48.890;8.240;2023-11-21T01:42:33;9.60;99.90
21559;DHT22;10940;48.890;8.240;2023-11-21T01:45:00;9.60;99.90
21559;DHT22;10940;48.890;8.240;2023-11-21T01:47:33;9.60;99.90
21559;DHT22;10940;48.890;8.240;2023-11-21T01:49:59;9.60;99.90
21559;DHT22;10940;48.890;8.240;2023-11-21T01:52:26;9.60;99.90
21559;DHT22;10940;48.890;8.240;2023-11-21T01:54:52;9.50;99.90
21559;DHT22;10940;48.890;8.240;2023-11-21T01:57:19;9.50;99.90
21559;DHT22;10940;48.890;8.240;2023-11-21T01:59:47;9.50;99.90
21559;DHT22;10940;48.890;8.240;2023-11-21T02:02:14;9.50;99.90
21559;DHT22;10940;48.890;8.240;2023-11-21T02:04:39;9.40;99.90
21559;DHT22;10940;48.890;8.240;2023-11-21T02:07:06;9.40;99.90
21559;DHT22;10940;48.890;8.240;2023-11-21T02:09:32;9.50;99.90
21559;DHT22;10940;48.890;8.240;2023-11-21T02:11:59;9.40;99.90
21559;DHT22;10940;48.890;8.240;2023-11-21T02:14:26;9.50;99.90
21559;DHT22;10940;48.890;8.240;2023-11-21T02:16:53;9.40;99.90
21559;DHT22;10940;48.890;8.240;2023-11-21T02:19:20;9.40;99.90
21559;DHT22;10940;48.890;8.240;2023-11-21T02:21:54;9.40;99.90
21559;DHT22;10940;48.890;8.240;2023-11-21T02:24:20;9.40;99.90
21559;DHT22;10940;48.890;8.240;2023-11-21T02:26:47;9.40;99.90
21559;DHT22;10940;48.890;8.240;2023-11-21T02:29:13;9.40;99.90
21559;DHT22;10940;48.890;8.240;2023-11-21T02:31:39;9.40;99.90
21559;DHT22;10940;48.890;8.240;2023-11-21T02:34:14;9.40;99.90
21559;DHT22;10940;48.890;8.240;2023-11-21T02:36:40;9.40;99.90
21559;DHT22;10940;48.890;8.240;2023-11-21T02:39:05;9.30;99.90
21559;DHT22;10940;48.890;8.240;2023-11-21T02:41:32;9.30;99.90
21559;DHT22;10940;48.890;8.240;2023-11-21T02:44:00;9.30;99.90
21559;DHT22;10940;48.890;8.240;2023-11-21T02:46:26;9.30;99.90
21559;DHT22;10940;48.890;8.240;2023-11-21T02:48:52;9.30;99.90
21559;DHT22;10940;48.890;8.240;2023-11-21T02:51:20;9.20;99.90
21559;DHT22;10940;48.890;8.240;2023-11-21T02:53:45;9.20;99.90
21559;DHT22;10940;48.890;8.240;2023-11-21T02:56:12;9.20;99.90
21559;DHT22;10940;48.890;8.240;2023-11-21T02:58:41;9.20;99.90
21559;DHT22;10940;48.890;8.240;2023-11-21T03:01:07;9.20;99.90
21559;DHT22;10940;48.890;8.240;2023-11-21T03:03:33;9.20;99.90
21559;DHT22;10940;48.890;8.240;2023-11-21T03:05:59;9.10;99.90
21559;DHT22;10940;48.890;8.240;2023-11-21T03:08:24;9.20;99.90
21559;DHT22;10940;48.890;8.240;2023-11-21T03:10:50;9.10;99.90
21559;DHT22;10940;48.890;8.240;2023-11-21T03:13:15;9.10;99.90
21559;DHT22;10940;48.890;8.240;2023-11-21T03:15:41;9.10;99.90
21559;DHT22;10940;48.890;8.240;2023-11-21T03:18:07;9.10;99.90
21559;DHT22;10940;48.890;8.240;2023-11-21T03:20:33;9.10;99.90
21559;DHT22;10940;48.890;8.240;2023-11-21T03:23:00;9.10;99.90
21559;DHT22;10940;48.890;8.240;2023-11-21T03:25:25;9.10;99.90
21559;DHT22;10940;48.890;8.240;2023-11-21T03:27:51;9.10;99.90
21559;DHT22;10940;48.890;8.240;2023-11-21T03:30:17;9.10;99.90
21559;DHT22;10940;48.890;8.240;2023-11-21T03:32:43;9.10;99.90
21559;DHT22;10940;48.890;8.240;2023-11-21T03:35:08;9.10;99.90
21559;DHT22;10940;48.890;8.240;2023-11-21T03:37:34;9.10;99.90
21559;DHT22;10940;48.890;8.240;2023-11-21T03:39:59;9.10;99.90
21559;DHT22;10940;48.890;8.240;2023-11-21T03:42:25;9.10;99.90
21559;DHT22;10940;48.890;8.240;2023-11-21T03:44:53;9.10;99.90
21559;DHT22;10940;48.890;8.240;2023-11-21T03:47:19;9.20;99.90
21559;DHT22;10940;48.890;8.240;2023-11-21T03:49:45;9.20;99.90
21559;DHT22;10940;48.890;8.240;2023-11-21T03:52:11;9.10;99.90
21559;DHT22;10940;48.890;8.240;2023-11-21T03:54:37;9.10;99.90
21559;DHT22;10940;48.890;8.240;2023-11-21T03:57:03;9.10;99.90
21559;DHT22;10940;48.890;8.240;2023-11-21T03:59:29;9.10;99.90
21559;DHT22;10940;48.890;8.240;2023-11-21T04:01:57;9.10;99.90
21559;DHT22;10940;48.890;8.240;2023-11-21T04:04:23;9.10;99.90
21559;DHT22;10940;48.890;8.240;2023-11-21T04:06:49;9.10;99.90
21559;DHT22;10940;48.890;8.240;2023-11-21T04:09:14;9.20;99.90
21559;DHT22;10940;48.890;8.240;2023-11-21T04:11:40;9.10;99.90
21559;DHT22;10940;48.890;8.240;2023-11-21T04:14:05;9.10;99.90
21559;DHT22;10940;48.890;8.240;2023-11-21T04:16:31;9.10;99.90
21559;DHT22;10940;48.890;8.240;2023-11-21T04:18:56;9.10;99.90
21559;DHT22;10940;48.890;8.240;2023-11-21T04:21:22;9.20;99.90
21559;DHT22;10940;48.890;8.240;2023-11-21T04:23:49;9.20;99.90
21559;DHT22;10940;48.890;8.240;2023-11-21T04:26:15;9.20;99.90
21559;DHT22;10940;48.890;8.240;2023-11-21T04:28:41;9.20;99.90
21559;DHT22;10940;48.890;8.240;2023-11-21T04:31:07;9.20;99.90
21559;DHT22;10940;48.890;8.240;2023-11-21T04:33:32;9.20;99.90
21559;DHT22;10940;48.890;8.240;2023-11-21T04:35:58;9.20;99.90
21559;DHT22;10940;48.890;8.240;2023-11-21T04:38:24;9.20;99.90
21559;DHT22;10940;48.890;8.240;2023-11-21T04:40:49;9.20;99.90
21559;DHT22;10940;48.890;8.240;2023-11-21T04:43:15;9.20;99.90
21559;DHT22;10940;48.890;8.240;2023-11-21T04:45:40;9.20;99.90
21559;DHT22;10940;48.890;8.240;2023-11-21T04:48:07;9.20;99.90
21559;DHT22;10940;48.890;8.240;2023-11-21T04:50:33;9.20;99.90
21559;DHT22;10940;48.890;8.240;2023-11-21T04:52:59;9.10;99.90
21559;DHT22;10940;48.890;8.240;2023-11-21T04:55:25;9.10;99.90
21559;DHT22;10940;48.890;8.240;2023-11-21T04:57:53;9.20;99.90
21559;DHT22;10940;48.890;8.240;2023-11-21T05:00:19;9.20;99.90
21559;DHT22;10940;48.890;8.240;2023-11-21T05:02:46;9.20;99.90
21559;DHT22;10940;48.890;8.240;2023-11-21T05:05:12;9.20;99.90
21559;DHT22;10940;48.890;8.240;2023-11-21T05:07:39;9.20;99.90
21559;DHT22;10940;48.890;8.240;2023-11-21T05:10:06;9.20;99.90
21559;DHT22;10940;48.890;8.240;2023-11-21T05:12:35;9.20;99.90
21559;DHT22;10940;48.890;8.240;2023-11-21T05:15:05;9.20;99.90
21559;DHT22;10940;48.890;8.240;2023-11-21T05:17:33;9.20;99.90
21559;DHT22;10940;48.890;8.240;2023-11-21T05:20:00;9.20;99.90
21559;DHT22;10940;48.890;8.240;2023-11-21T05:22:29;9.20;99.90
21559;DHT22;10940;48.890;8.240;2023-11-21T05:24:55;9.20;99.90
21559;DHT22;10940;48.890;8.240;2023-11-21T05:27:21;9.20;99.90
21559;DHT22;10940;48.890;8.240;2023-11-21T05:29:47;9.20;99.90
21559;DHT22;10940;48.890;8.240;2023-11-21T05:32:12;9.20;99.90
21559;DHT22;10940;48.890;8.240;2023-11-21T05:34:38;9.20;99.90
21559;DHT22;10940;48.890;8.240;2023-11-21T05:37:03;9.20;99.90
21559;DHT22;10940;48.890;8.240;2023-11-21T05:39:30;9.20;99.90
21559;DHT22;10940;48.890;8.240;2023-11-21T05:41:57;9.20;99.90
21559;DHT22;10940;48.890;8.240;2023-11-21T05:44:23;9.10;99.90
21559;DHT22;10940;48.890;8.240;2023-11-21T05:46:49;9.10;99.90
21559;DHT22;10940;48.890;8.240;2023-11-21T05:49:15;9.10;99.90
21559;DHT22;10940;48.890;8.240;2023-11-21T05:51:41;9.10;99.90
21559;DHT22;10940;48.890;8.240;2023-11-21T05:54:07;9.10;99.90
21559;DHT22;10940;48.890;8.240;2023-11-21T05:56:34;9.10;99.90
21559;DHT22;10940;48.890;8.240;2023-11-21T05:58:59;9.10;99.90
21559;DHT22;10940;48.890;8.240;2023-11-21T06:01:26;9.00;99.90
21559;DHT22;10940;48.890;8.240;2023-11-21T06:03:54;9.10;99.90
21559;DHT22;10940;48.890;8.240;2023-11-21T06:06:20;9.10;99.90
21559;DHT22;10940;48.890;8.240;2023-11-21T06:08:50;9.10;99.90
21559;DHT22;10940;48.890;8.240;2023-11-21T06:11:16;9.10;99.90
21559;DHT22;10940;48.890;8.240;2023-11-21T06:13:41;9.20;99.90
21559;DHT22;10940;48.890;8.240;2023-11-21T06:16:08;9.20;99.90
21559;DHT22;10940;48.890;8.240;2023-11-21T06:18:33;9.10;99.90
21559;DHT22;10940;48.890;8.240;2023-11-21T06:21:00;9.20;99.90
21559;DHT22;10940;48.890;8.240;2023-11-21T06:23:26;9.20;99.90
21559;DHT22;10940;48.890;8.240;2023-11-21T06:25:51;9.20;99.90
21559;DHT22;10940;48.890;8.240;2023-11-21T06:28:18;9.20;99.90
21559;DHT22;10940;48.890;8.240;2023-11-21T06:30:43;9.20;99.90
21559;DHT22;10940;48.890;8.240;2023-11-21T06:33:10;9.20;99.90
21559;DHT22;10940;48.890;8.240;2023-11-21T06:35:36;9.10;99.90
21559;DHT22;10940;48.890;8.240;2023-11-21T06:38:02;9.10;99.90
21559;DHT22;10940;48.890;8.240;2023-11-21T06:40:28;9.10;99.90
21559;DHT22;10940;48.890;8.240;2023-11-21T06:42:53;9.20;99.90
21559;DHT22;10940;48.890;8.240;2023-11-21T06:45:19;9.20;99.90
21559;DHT22;10940;48.890;8.240;2023-11-21T06:47:45;9.10;99.90
21559;DHT22;10940;48.890;8.240;2023-11-21T06:50:11;9.10;99.90
21559;DHT22;10940;48.890;8.240;2023-11-21T06:52:37;9.10;99.90
21559;DHT22;10940;48.890;8.240;2023-11-21T06:55:04;9.20;99.90
21559;DHT22;10940;48.890;8.240;2023-11-21T06:57:30;9.10;99.90
21559;DHT22;10940;48.890;8.240;2023-11-21T06:59:56;9.20;99.90
21559;DHT22;10940;48.890;8.240;2023-11-21T07:02:23;9.20;99.90
21559;DHT22;10940;48.890;8.240;2023-11-21T07:04:48;9.20;99.90
21559;DHT22;10940;48.890;8.240;2023-11-21T07:07:14;9.10;99.90
21559;DHT22;10940;48.890;8.240;2023-11-21T07:09:39;9.10;99.90
21559;DHT22;10940;48.890;8.240;2023-11-21T07:12:05;9.10;99.90
21559;DHT22;10940;48.890;8.240;2023-11-21T07:14:34;9.10;99.90
21559;DHT22;10940;48.890;8.240;2023-11-21T07:16:59;9.20;99.90
21559;DHT22;10940;48.890;8.240;2023-11-21T07:19:25;9.10;99.90
21559;DHT22;10940;48.890;8.240;2023-11-21T07:21:50;9.10;99.90
21559;DHT22;10940;48.890;8.240;2023-11-21T07:24:17;9.10;99.90
21559;DHT22;10940;48.890;8.240;2023-11-21T07:26:42;9.10;99.90
21559;DHT22;10940;48.890;8.240;2023-11-21T07:29:08;9.10;99.90
21559;DHT22;10940;48.890;8.240;2023-11-21T07:31:34;9.10;99.90
21559;DHT22;10940;48.890;8.240;2023-11-21T07:34:00;9.10;99.90
21559;DHT22;10940;48.890;8.240;2023-11-21T07:36:26;9.10;99.90
21559;DHT22;10940;48.890;8.240;2023-11-21T07:38:52;9.20;99.90
21559;DHT22;10940;48.890;8.240;2023-11-21T07:41:18;9.10;99.90
21559;DHT22;10940;48.890;8.240;2023-11-21T07:43:45;9.10;99.90
21559;DHT22;10940;48.890;8.240;2023-11-21T07:46:11;9.20;99.90
21559;DHT22;10940;48.890;8.240;2023-11-21T07:48:41;9.20;99.90
21559;DHT22;10940;48.890;8.240;2023-11-21T07:51:08;9.20;99.90
21559;DHT22;10940;48.890;8.240;2023-11-21T07:53:33;9.20;99.90
21559;DHT22;10940;48.890;8.240;2023-11-21T07:56:07;9.20;99.90
21559;DHT22;10940;48.890;8.240;2023-11-21T07:58:36;9.20;99.90
21559;DHT22;10940;48.890;8.240;2023-11-21T08:01:03;9.20;99.90
21559;DHT22;10940;48.890;8.240;2023-11-21T08:03:29;9.20;99.90
21559;DHT22;10940;48.890;8.240;2023-11-21T08:05:56;9.20;99.90
21559;DHT22;10940;48.890;8.240;2023-11-21T08:08:22;9.20;99.90
21559;DHT22;10940;48.890;8.240;2023-11-21T08:10:49;9.20;99.90
21559;DHT22;10940;48.890;8.240;2023-11-21T08:13:22;9.20;99.90
21559;DHT22;10940;48.890;8.240;2023-11-21T08:15:47;9.20;99.90
21559;DHT22;10940;48.890;8.240;2023-11-21T08:18:13;9.20;99.90
21559;DHT22;10940;48.890;8.240;2023-11-21T08:20:40;9.20;99.90
21559;DHT22;10940;48.890;8.240;2023-11-21T08:23:06;9.20;99.90
21559;DHT22;10940;48.890;8.240;2023-11-21T08:25:32;9.20;99.90
21559;DHT22;10940;48.890;8.240;2023-11-21T08:28:00;9.20;99.90
21559;DHT22;10940;48.890;8.240;2023-11-21T08:30:25;9.20;99.90
21559;DHT22;10940;48.890;8.240;2023-11-21T08:32:54;9.30;99.90
21559;DHT22;10940;48.890;8.240;2023-11-21T08:35:24;9.30;99.90
21559;DHT22;10940;48.890;8.240;2023-11-21T08:37:53;9.30;99.90
21559;DHT22;10940;48.890;8.240;2023-11-21T08:40:19;9.30;99.90
21559;DHT22;10940;48.890;8.240;2023-11-21T08:42:46;9.30;99.90
21559;DHT22;10940;48.890;8.240;2023-11-21T08:45:12;9.30;99.90
21559;DHT22;10940;48.890;8.240;2023-11-21T08:47:39;9.30;99.90
21559;DHT22;10940;48.890;8.240;2023-11-21T08:50:06;9.40;99.90
21559;DHT22;10940;48.890;8.240;2023-11-21T08:52:34;9.40;99.90
21559;DHT22;10940;48.890;8.240;2023-11-21T08:54:59;9.40;99.90
21559;DHT22;10940;48.890;8.240;2023-11-21T08:57:28;9.40;99.90
21559;DHT22;10940;48.890;8.240;2023-11-21T08:59:54;9.30;99.90
21559;DHT22;10940;48.890;8.240;2023-11-21T09:02:23;9.30;99.90
21559;DHT22;10940;48.890;8.240;2023-11-21T09:04:51;9.30;99.90
21559;DHT22;10940;48.890;8.240;2023-11-21T09:07:18;9.30;99.90
21559;DHT22;10940;48.890;8.240;2023-11-21T09:09:46;9.20;99.90
21559;DHT22;10940;48.890;8.240;2023-11-21T09:12:13;9.20;99.90
21559;DHT22;10940;48.890;8.240;2023-11-21T09:14:39;9.30;99.90
21559;DHT22;10940;48.890;8.240;2023-11-21T09:17:05;9.30;99.90
21559;DHT22;10940;48.890;8.240;2023-11-21T09:19:37;9.30;99.90
21559;DHT22;10940;48.890;8.240;2023-11-21T09:22:03;9.30;99.90
21559;DHT22;10940;48.890;8.240;2023-11-21T09:24:33;9.30;99.90
21559;DHT22;10940;48.890;8.240;2023-11-21T09:26:59;9.40;99.90
21559;DHT22;10940;48.890;8.240;2023-11-21T09:29:28;9.40;99.90
21559;DHT22;10940;48.890;8.240;2023-11-21T09:31:54;9.50;99.90
21559;DHT22;10940;48.890;8.240;2023-11-21T09:34:21;9.50;99.90
21559;DHT22;10940;48.890;8.240;2023-11-21T09:36:47;9.60;99.90
21559;DHT22;10940;48.890;8.240;2023-11-21T09:39:16;9.60;99.90
21559;DHT22;10940;48.890;8.240;2023-11-21T09:41:51;9.70;99.90
21559;DHT22;10940;48.890;8.240;2023-11-21T09:44:26;9.70;99.90
21559;DHT22;10940;48.890;8.240;2023-11-21T09:46:56;9.70;99.90
21559;DHT22;10940;48.890;8.240;2023-11-21T09:49:25;9.70;99.90
21559;DHT22;10940;48.890;8.240;2023-11-21T09:51:54;9.80;99.90
21559;DHT22;10940;48.890;8.240;2023-11-21T09:54:21;9.70;99.90
21559;DHT22;10940;48.890;8.240;2023-11-21T09:56:47;9.80;99.90
21559;DHT22;10940;48.890;8.240;2023-11-21T09:59:15;9.80;99.90
21559;DHT22;10940;48.890;8.240;2023-11-21T10:01:42;9.80;99.90
21559;DHT22;10940;48.890;8.240;2023-11-21T10:04:08;9.80;99.90
21559;DHT22;10940;48.890;8.240;2023-11-21T10:06:39;9.80;99.90
21559;DHT22;10940;48.890;8.240;2023-11-21T10:09:06;9.80;99.90
21559;DHT22;10940;48.890;8.240;2023-11-21T10:11:40;9.80;99.90
21559;DHT22;10940;48.890;8.240;2023-11-21T10:14:08;9.90;99.90
21559;DHT22;10940;48.890;8.240;2023-11-21T10:16:37;9.90;99.90
21559;DHT22;10940;48.890;8.240;2023-11-21T10:19:04;9.90;99.90
21559;DHT22;10940;48.890;8.240;2023-11-21T10:21:32;9.90;99.90
21559;DHT22;10940;48.890;8.240;2023-11-21T10:23:58;10.00;99.90
21559;DHT22;10940;48.890;8.240;2023-11-21T10:26:26;10.00;99.90
21559;DHT22;10940;48.890;8.240;2023-11-21T10:28:58;10.00;99.90
21559;DHT22;10940;48.890;8.240;2023-11-21T10:31:27;10.00;99.90
21559;DHT22;10940;48.890;8.240;2023-11-21T10:33:52;10.00;99.90
21559;DHT22;10940;48.890;8.240;2023-11-21T10:36:28;10.00;99.90
21559;DHT22;10940;48.890;8.240;2023-11-21T10:38:54;10.10;99.90
21559;DHT22;10940;48.890;8.240;2023-11-21T10:41:23;10.10;99.90
21559;DHT22;10940;48.890;8.240;2023-11-21T10:43:48;10.10;99.90
21559;DHT22;10940;48.890;8.240;2023-11-21T10:46:14;10.10;99.90
21559;DHT22;10940;48.890;8.240;2023-11-21T10:48:42;10.10;99.90
21559;DHT22;10940;48.890;8.240;2023-11-21T10:51:08;10.10;99.90
21559;DHT22;10940;48.890;8.240;2023-11-21T10:53:39;10.10;99.90
21559;DHT22;10940;48.890;8.240;2023-11-21T10:56:08;10.10;99.90
21559;DHT22;10940;48.890;8.240;2023-11-21T10:58:37;10.10;99.90
21559;DHT22;10940;48.890;8.240;2023-11-21T11:01:06;10.10;99.90
21559;DHT22;10940;48.890;8.240;2023-11-21T11:03:32;10.20;99.90
21559;DHT22;10940;48.890;8.240;2023-11-21T11:06:02;10.20;99.90
21559;DHT22;10940;48.890;8.240;2023-11-21T11:08:30;10.30;99.90
21559;DHT22;10940;48.890;8.240;2023-11-21T11:10:56;10.20;99.90
21559;DHT22;10940;48.890;8.240;2023-11-21T11:13:24;10.20;99.90
21559;DHT22;10940;48.890;8.240;2023-11-21T11:15:49;10.20;99.90
21559;DHT22;10940;48.890;8.240;2023-11-21T11:18:16;10.20;99.90
21559;DHT22;10940;48.890;8.240;2023-11-21T11:20:43;10.20;99.90
21559;DHT22;10940;48.890;8.240;2023-11-21T11:23:36;10.20;99.90
21559;DHT22;10940;48.890;8.240;2023-11-21T11:29:08;10.20;99.90
21559;DHT22;10940;48.890;8.240;2023-11-21T11:34:29;10.20;99.90
21559;DHT22;10940;48.890;8.240;2023-11-21T11:37:05;10.20;99.90
21559;DHT22;10940;48.890;8.240;2023-11-21T11:39:39;10.10;99.90
21559;DHT22;10940;48.890;8.240;2023-11-21T11:42:10;10.10;99.90
21559;DHT22;10940;48.890;8.240;2023-11-21T11:47:28;10.00;99.90
21559;DHT22;10940;48.890;8.240;2023-11-21T11:50:10;10.00;99.90
21559;DHT22;10940;48.890;8.240;2023-11-21T11:52:49;10.00;99.90
21559;DHT22;10940;48.890;8.240;2023-11-21T11:55:18;10.10;99.90
21559;DHT22;10940;48.890;8.240;2023-11-21T11:57:46;10.00;99.90
21559;DHT22;10940;48.890;8.240;2023-11-21T12:03:08;10.00;99.90
21559;DHT22;10940;48.890;8.240;2023-11-21T12:05:35;10.00;99.90
21559;DHT22;10940;48.890;8.240;2023-11-21T12:08:05;10.00;99.90
21559;DHT22;10940;48.890;8.240;2023-11-21T12:10:35;9.90;99.90
21559;DHT22;10940;48.890;8.240;2023-11-21T12:13:07;10.00;99.90
21559;DHT22;10940;48.890;8.240;2023-11-21T12:15:34;10.00;99.90
21559;DHT22;10940;48.890;8.240;2023-11-21T12:18:00;10.00;99.90
21559;DHT22;10940;48.890;8.240;2023-11-21T12:20:27;10.00;99.90
21559;DHT22;10940;48.890;8.240;2023-11-21T12:22:54;10.00;99.90
21559;DHT22;10940;48.890;8.240;2023-11-21T12:25:22;10.10;99.90
21559;DHT22;10940;48.890;8.240;2023-11-21T12:27:50;10.10;99.90
21559;DHT22;10940;48.890;8.240;2023-11-21T12:30:18;10.10;99.90
21559;DHT22;10940;48.890;8.240;2023-11-21T12:32:47;10.10;99.90
21559;DHT22;10940;48.890;8.240;2023-11-21T12:35:13;10.10;99.90
21559;DHT22;10940;48.890;8.240;2023-11-21T12:37:41;10.10;99.90
21559;DHT22;10940;48.890;8.240;2023-11-21T12:40:08;10.20;99.90
21559;DHT22;10940;48.890;8.240;2023-11-21T12:42:40;10.10;99.90
21559;DHT22;10940;48.890;8.240;2023-11-21T12:47:41;10.20;99.90
21559;DHT22;10940;48.890;8.240;2023-11-21T12:50:07;10.20;99.90
21559;DHT22;10940;48.890;8.240;2023-11-21T12:52:40;10.30;99.90
21559;DHT22;10940;48.890;8.240;2023-11-21T12:55:06;10.20;99.90
21559;DHT22;10940;48.890;8.240;2023-11-21T12:57:34;10.30;99.90
21559;DHT22;10940;48.890;8.240;2023-11-21T13:00:04;10.20;99.90
21559;DHT22;10940;48.890;8.240;2023-11-21T13:02:37;10.30;99.90
21559;DHT22;10940;48.890;8.240;2023-11-21T13:05:04;10.20;99.90
21559;DHT22;10940;48.890;8.240;2023-11-21T13:07:44;10.20;99.90
21559;DHT22;10940;48.890;8.240;2023-11-21T13:10:13;10.20;99.90
21559;DHT22;10940;48.890;8.240;2023-11-21T13:12:47;10.20;99.90
21559;DHT22;10940;48.890;8.240;2023-11-21T13:15:16;10.30;99.90
21559;DHT22;10940;48.890;8.240;2023-11-21T13:17:45;10.20;99.90
21559;DHT22;10940;48.890;8.240;2023-11-21T13:20:14;10.20;99.90
21559;DHT22;10940;48.890;8.240;2023-11-21T13:22:58;10.20;99.90
21559;DHT22;10940;48.890;8.240;2023-11-21T13:25:28;10.20;99.90
21559;DHT22;10940;48.890;8.240;2023-11-21T13:28:00;10.30;99.90
21559;DHT22;10940;48.890;8.240;2023-11-21T13:30:29;10.20;99.90
21559;DHT22;10940;48.890;8.240;2023-11-21T13:33:04;10.30;99.90
21559;DHT22;10940;48.890;8.240;2023-11-21T13:35:39;10.30;99.90
21559;DHT22;10940;48.890;8.240;2023-11-21T13:38:11;10.30;99.90
21559;DHT22;10940;48.890;8.240;2023-11-21T13:40:42;10.20;99.90
21559;DHT22;10940;48.890;8.240;2023-11-21T13:43:16;10.30;99.90
21559;DHT22;10940;48.890;8.240;2023-11-21T13:45:45;10.30;99.90
21559;DHT22;10940;48.890;8.240;2023-11-21T13:48:11;10.30;99.90
21559;DHT22;10940;48.890;8.240;2023-11-21T13:50:41;10.30;99.90
21559;DHT22;10940;48.890;8.240;2023-11-21T13:53:20;10.30;99.90
21559;DHT22;10940;48.890;8.240;2023-11-21T13:55:53;10.30;99.90
21559;DHT22;10940;48.890;8.240;2023-11-21T13:58:24;10.30;99.90
21559;DHT22;10940;48.890;8.240;2023-11-21T14:01:08;10.30;99.90
21559;DHT22;10940;48.890;8.240;2023-11-21T14:03:52;10.30;99.90
21559;DHT22;10940;48.890;8.240;2023-11-21T14:06:23;10.30;99.90
21559;DHT22;10940;48.890;8.240;2023-11-21T14:08:58;10.30;99.90
21559;DHT22;10940;48.890;8.240;2023-11-21T14:11:23;10.30;99.90
21559;DHT22;10940;48.890;8.240;2023-11-21T14:13:49;10.30;99.90
21559;DHT22;10940;48.890;8.240;2023-11-21T14:16:15;10.30;99.90
21559;DHT22;10940;48.890;8.240;2023-11-21T14:18:43;10.30;99.90
21559;DHT22;10940;48.890;8.240;2023-11-21T14:21:19;10.20;99.90
21559;DHT22;10940;48.890;8.240;2023-11-21T14:23:45;10.20;99.90
21559;DHT22;10940;48.890;8.240;2023-11-21T14:26:11;10.20;99.90
21559;DHT22;10940;48.890;8.240;2023-11-21T14:28:43;10.20;99.90
21559;DHT22;10940;48.890;8.240;2023-11-21T14:31:08;10.20;99.90
21559;DHT22;10940;48.890;8.240;2023-11-21T14:33:40;10.10;99.90
21559;DHT22;10940;48.890;8.240;2023-11-21T14:36:07;10.10;99.90
21559;DHT22;10940;48.890;8.240;2023-11-21T14:38:38;10.10;99.90
21559;DHT22;10940;48.890;8.240;2023-11-21T14:41:08;10.10;99.90
21559;DHT22;10940;48.890;8.240;2023-11-21T14:43:36;10.10;99.90
21559;DHT22;10940;48.890;8.240;2023-11-21T14:46:03;10.00;99.90
21559;DHT22;10940;48.890;8.240;2023-11-21T14:48:32;10.10;99.90
21559;DHT22;10940;48.890;8.240;2023-11-21T14:51:13;10.00;99.90
21559;DHT22;10940;48.890;8.240;2023-11-21T14:53:38;10.00;99.90
21559;DHT22;10940;48.890;8.240;2023-11-21T14:56:20;10.00;99.90
21559;DHT22;10940;48.890;8.240;2023-11-21T14:58:56;10.00;99.90
21559;DHT22;10940;48.890;8.240;2023-11-21T15:01:23;10.00;99.90
21559;DHT22;10940;48.890;8.240;2023-11-21T15:04:09;10.10;99.90
21559;DHT22;10940;48.890;8.240;2023-11-21T15:06:40;10.00;99.90
21559;DHT22;10940;48.890;8.240;2023-11-21T15:09:08;10.00;99.90
21559;DHT22;10940;48.890;8.240;2023-11-21T15:11:35;10.00;99.90
21559;DHT22;10940;48.890;8.240;2023-11-21T15:14:02;9.90;99.90
21559;DHT22;10940;48.890;8.240;2023-11-21T15:16:33;9.90;99.90
21559;DHT22;10940;48.890;8.240;2023-11-21T15:18:58;9.90;99.90
21559;DHT22;10940;48.890;8.240;2023-11-21T15:21:24;9.80;99.90
21559;DHT22;10940;48.890;8.240;2023-11-21T15:23:50;9.80;99.90
21559;DHT22;10940;48.890;8.240;2023-11-21T15:26:16;9.80;99.90
21559;DHT22;10940;48.890;8.240;2023-11-21T15:28:42;9.80;99.90
21559;DHT22;10940;48.890;8.240;2023-11-21T15:31:07;9.80;99.90
21559;DHT22;10940;48.890;8.240;2023-11-21T15:33:34;9.80;99.90
21559;DHT22;10940;48.890;8.240;2023-11-21T15:36:02;9.70;99.90
21559;DHT22;10940;48.890;8.240;2023-11-21T15:38:29;9.70;99.90
21559;DHT22;10940;48.890;8.240;2023-11-21T15:40:55;9.70;99.90
21559;DHT22;10940;48.890;8.240;2023-11-21T15:43:20;9.70;99.90
21559;DHT22;10940;48.890;8.240;2023-11-21T15:45:46;9.70;99.90
21559;DHT22;10940;48.890;8.240;2023-11-21T15:48:12;9.70;99.90
21559;DHT22;10940;48.890;8.240;2023-11-21T15:50:37;9.60;99.90
21559;DHT22;10940;48.890;8.240;2023-11-21T15:53:03;9.70;99.90
21559;DHT22;10940;48.890;8.240;2023-11-21T15:55:30;9.60;99.90
21559;DHT22;10940;48.890;8.240;2023-11-21T15:57:56;9.70;99.90